Time;durP1;ratioP1;P1;durP2;ratioP2;P2;SDS_P1;SDS_P2;PMS_P1;PMS_P2;Temp;Humidity;BMP_temperature;BMP_pressure;BME280_temperature;BME280_humidity;BME280_pressure;Samples;Min_cycle;Max_cycle;Signal;HPM_P1;HPM_P2
2022/07/03 00:00:39;;;;;;;;;;;12.20;99.90;;;;;;5091347;28;19920;-54
2022/07/03 00:03:06;;;;;;;;;;;12.20;99.90;;;;;;5092916;28;19927;-53
2022/07/03 00:05:34;;;;;;;;;;;12.20;99.90;;;;;;5091424;28;19920;-54
2022/07/03 00:08:05;;;;;;;;;;;12.10;99.90;;;;;;5106610;28;20302;-54
2022/07/03 00:10:33;;;;;;;;;;;12.10;99.90;;;;;;5091150;28;19920;-57
2022/07/03 00:13:01;;;;;;;;;;;12.10;99.90;;;;;;5090256;28;19927;-57
2022/07/03 00:15:28;;;;;;;;;;;12.10;99.90;;;;;;5108069;28;20306;-57
2022/07/03 00:17:56;;;;;;;;;;;12.00;99.90;;;;;;5110722;28;19927;-57
2022/07/03 00:20:26;;;;;;;;;;;12.00;99.90;;;;;;5105513;28;20371;-56
2022/07/03 00:22:53;;;;;;;;;;;12.00;99.90;;;;;;5095139;28;19920;-57
2022/07/03 00:25:20;;;;;;;;;;;12.00;99.90;;;;;;5111167;28;19919;-57
2022/07/03 00:27:49;;;;;;;;;;;12.00;99.90;;;;;;5110565;28;19920;-57
2022/07/03 00:30:16;;;;;;;;;;;11.90;99.90;;;;;;5090739;28;19920;-57
2022/07/03 00:32:44;;;;;;;;;;;11.90;99.90;;;;;;5093509;28;19920;-57
2022/07/03 00:35:15;;;;;;;;;;;11.90;99.90;;;;;;5107538;28;19927;-57
2022/07/03 00:37:43;;;;;;;;;;;11.90;99.90;;;;;;5072018;28;19920;-55
2022/07/03 00:40:11;;;;;;;;;;;11.80;99.90;;;;;;5090130;28;20322;-58
2022/07/03 00:42:41;;;;;;;;;;;11.80;99.90;;;;;;5092524;28;19927;-58
2022/07/03 00:45:09;;;;;;;;;;;11.70;99.90;;;;;;5110954;28;19919;-58
2022/07/03 00:47:36;;;;;;;;;;;11.70;99.90;;;;;;5110822;28;19927;-57
2022/07/03 00:50:08;;;;;;;;;;;11.70;99.90;;;;;;5091239;28;19920;-57
2022/07/03 00:52:36;;;;;;;;;;;11.60;99.90;;;;;;5091304;28;19924;-56
2022/07/03 00:55:07;;;;;;;;;;;11.60;99.90;;;;;;5110695;28;19920;-58
2022/07/03 00:57:35;;;;;;;;;;;11.60;99.90;;;;;;5126683;27;19920;-58
2022/07/03 01:00:02;;;;;;;;;;;11.50;99.90;;;;;;5126263;27;19920;-58
2022/07/03 01:02:45;;;;;;;;;;;11.40;99.90;;;;;;5102218;28;20381;-55
2022/07/03 01:05:19;;;;;;;;;;;11.40;99.90;;;;;;5099165;28;19928;-58
2022/07/03 01:07:51;;;;;;;;;;;11.40;99.90;;;;;;5105483;28;20423;-57
2022/07/03 01:10:30;;;;;;;;;;;11.30;99.90;;;;;;5090021;28;19920;-59
2022/07/03 01:13:06;;;;;;;;;;;11.40;99.90;;;;;;5105015;28;19934;-58
2022/07/03 01:15:34;;;;;;;;;;;11.30;99.90;;;;;;5109019;28;19920;-56
2022/07/03 01:18:13;;;;;;;;;;;11.30;99.90;;;;;;5107693;28;19919;-57
2022/07/03 01:20:41;;;;;;;;;;;11.30;99.90;;;;;;5091602;28;19926;-58
2022/07/03 01:23:19;;;;;;;;;;;11.30;99.90;;;;;;5100342;28;19927;-56
2022/07/03 01:25:48;;;;;;;;;;;11.20;99.90;;;;;;5088305;28;20387;-58
2022/07/03 01:28:18;;;;;;;;;;;11.20;99.90;;;;;;5089649;28;19943;-57
2022/07/03 01:30:49;;;;;;;;;;;11.10;99.90;;;;;;5092574;28;19927;-59
2022/07/03 01:33:23;;;;;;;;;;;11.00;99.90;;;;;;5110810;28;19919;-58
2022/07/03 01:35:51;;;;;;;;;;;11.00;99.90;;;;;;5105278;28;19920;-58
2022/07/03 01:38:20;;;;;;;;;;;11.00;99.90;;;;;;5091095;28;20298;-57
2022/07/03 01:40:48;;;;;;;;;;;11.00;99.90;;;;;;5091568;28;20264;-56
2022/07/03 01:43:18;;;;;;;;;;;10.90;99.90;;;;;;5094302;28;20467;-59
2022/07/03 01:45:47;;;;;;;;;;;10.90;99.90;;;;;;5095354;28;19924;-57
2022/07/03 01:48:14;;;;;;;;;;;10.90;99.90;;;;;;5112878;28;19920;-58
2022/07/03 01:50:42;;;;;;;;;;;10.90;99.90;;;;;;5112729;28;19920;-55
2022/07/03 01:53:11;;;;;;;;;;;10.80;99.90;;;;;;5110851;28;19926;-57
2022/07/03 01:55:39;;;;;;;;;;;10.80;99.90;;;;;;5112811;28;19920;-57
2022/07/03 01:58:07;;;;;;;;;;;10.70;99.90;;;;;;5112158;28;19919;-54
2022/07/03 02:00:40;;;;;;;;;;;10.70;99.90;;;;;;5111607;28;19920;-55
2022/07/03 02:03:08;;;;;;;;;;;10.70;99.90;;;;;;5110567;28;19919;-55
2022/07/03 02:05:43;;;;;;;;;;;10.70;99.90;;;;;;5112296;28;20314;-58
2022/07/03 02:08:26;;;;;;;;;;;10.60;99.90;;;;;;5112654;28;19920;-58
2022/07/03 02:10:56;;;;;;;;;;;10.60;99.90;;;;;;5112620;28;20363;-57
2022/07/03 02:13:26;;;;;;;;;;;10.60;99.90;;;;;;5111466;28;19919;-57
2022/07/03 02:15:56;;;;;;;;;;;10.50;99.90;;;;;;5112612;28;20302;-57
2022/07/03 02:18:35;;;;;;;;;;;10.50;99.90;;;;;;5110697;28;19920;-58
2022/07/03 02:21:23;;;;;;;;;;;10.50;99.90;;;;;;5112551;28;20379;-58
2022/07/03 02:24:09;;;;;;;;;;;10.40;99.90;;;;;;5112036;28;19919;-58
2022/07/03 02:26:40;;;;;;;;;;;10.40;99.90;;;;;;5112243;28;19920;-57
2022/07/03 02:29:17;;;;;;;;;;;10.40;99.90;;;;;;5112471;28;20308;-57
2022/07/03 02:31:45;;;;;;;;;;;10.30;99.90;;;;;;5111310;28;20398;-54
2022/07/03 02:34:17;;;;;;;;;;;10.40;99.90;;;;;;5103879;28;19920;-55
2022/07/03 02:36:48;;;;;;;;;;;10.30;99.90;;;;;;5092177;28;19928;-56
2022/07/03 02:39:23;;;;;;;;;;;10.30;99.90;;;;;;5090740;28;19931;-55
2022/07/03 02:41:53;;;;;;;;;;;10.30;99.90;;;;;;5094607;28;19931;-57
2022/07/03 02:44:31;;;;;;;;;;;10.30;99.90;;;;;;5114137;28;19920;-57
2022/07/03 02:47:02;;;;;;;;;;;10.30;99.90;;;;;;5116351;28;19924;-57
2022/07/03 02:49:39;;;;;;;;;;;10.30;99.90;;;;;;5116403;28;19919;-58
2022/07/03 02:52:22;;;;;;;;;;;10.30;99.90;;;;;;5113730;28;19919;-57
2022/07/03 02:54:51;;;;;;;;;;;10.30;99.90;;;;;;5116134;28;19927;-57
2022/07/03 02:57:22;;;;;;;;;;;10.30;99.90;;;;;;5116163;28;19926;-58
2022/07/03 02:59:58;;;;;;;;;;;10.30;99.90;;;;;;5116170;28;19942;-55
2022/07/03 03:02:44;;;;;;;;;;;10.30;99.90;;;;;;5115291;28;19927;-57
2022/07/03 03:05:28;;;;;;;;;;;10.20;99.90;;;;;;5115786;28;20527;-57
2022/07/03 03:08:13;;;;;;;;;;;10.20;99.90;;;;;;5115924;28;19927;-57
2022/07/03 03:10:43;;;;;;;;;;;10.20;99.90;;;;;;5115802;28;19920;-57
2022/07/03 03:13:12;;;;;;;;;;;10.20;99.90;;;;;;5114836;28;20401;-58
2022/07/03 03:15:43;;;;;;;;;;;10.20;99.90;;;;;;5114088;28;19951;-57
2022/07/03 03:18:12;;;;;;;;;;;10.20;99.90;;;;;;5115966;28;19944;-58
2022/07/03 03:20:41;;;;;;;;;;;10.20;99.90;;;;;;5115892;28;20427;-56
2022/07/03 03:23:19;;;;;;;;;;;10.10;99.90;;;;;;5114400;28;19927;-56
2022/07/03 03:25:46;;;;;;;;;;;10.10;99.90;;;;;;5115480;28;19931;-57
2022/07/03 03:28:14;;;;;;;;;;;10.10;99.90;;;;;;5115679;28;19919;-57
2022/07/03 03:30:41;;;;;;;;;;;10.00;99.90;;;;;;5115562;28;19920;-56
2022/07/03 03:33:09;;;;;;;;;;;10.00;99.90;;;;;;5114045;28;20367;-55
2022/07/03 03:35:37;;;;;;;;;;;10.00;99.90;;;;;;5115339;28;19923;-57
2022/07/03 03:38:05;;;;;;;;;;;9.90;99.90;;;;;;5115307;28;20307;-56
2022/07/03 03:40:33;;;;;;;;;;;9.90;99.90;;;;;;5115490;28;20294;-57
2022/07/03 03:43:01;;;;;;;;;;;9.80;99.90;;;;;;5114510;28;19920;-57
2022/07/03 03:45:28;;;;;;;;;;;9.80;99.90;;;;;;5115347;28;19920;-57
2022/07/03 03:47:56;;;;;;;;;;;9.80;99.90;;;;;;5115222;28;19949;-56
2022/07/03 03:50:23;;;;;;;;;;;9.80;99.90;;;;;;5115084;28;20271;-57
2022/07/03 03:52:51;;;;;;;;;;;9.80;99.90;;;;;;5112983;28;19926;-57
2022/07/03 03:55:18;;;;;;;;;;;9.70;99.90;;;;;;5114318;28;19920;-57
2022/07/03 03:57:46;;;;;;;;;;;9.70;99.90;;;;;;5115098;28;20275;-57
2022/07/03 04:00:14;;;;;;;;;;;9.70;99.90;;;;;;5114934;28;19926;-56
2022/07/03 04:02:41;;;;;;;;;;;9.70;99.90;;;;;;5114293;28;19920;-55
2022/07/03 04:05:08;;;;;;;;;;;9.70;99.90;;;;;;5114875;28;19920;-54
2022/07/03 04:07:36;;;;;;;;;;;9.70;99.90;;;;;;5114322;28;19920;-56
2022/07/03 04:10:03;;;;;;;;;;;9.70;99.90;;;;;;5114759;28;19927;-56
2022/07/03 04:12:30;;;;;;;;;;;9.70;99.90;;;;;;5113788;28;19927;-55
2022/07/03 04:14:58;;;;;;;;;;;9.70;99.90;;;;;;5114635;28;19923;-54
2022/07/03 04:17:26;;;;;;;;;;;9.80;99.90;;;;;;5114664;28;19919;-55
2022/07/03 04:19:53;;;;;;;;;;;9.80;99.90;;;;;;5114524;28;19920;-56
2022/07/03 04:22:21;;;;;;;;;;;9.80;99.90;;;;;;5113814;28;19927;-54
2022/07/03 04:24:48;;;;;;;;;;;9.90;99.90;;;;;;5114377;28;20314;-56
2022/07/03 04:27:15;;;;;;;;;;;10.00;99.90;;;;;;5114550;28;20413;-55
2022/07/03 04:29:43;;;;;;;;;;;10.10;99.90;;;;;;5114538;28;19934;-55
2022/07/03 04:32:11;;;;;;;;;;;10.20;99.90;;;;;;5113979;28;19919;-57
2022/07/03 04:34:38;;;;;;;;;;;10.20;99.90;;;;;;5114125;28;19926;-55
2022/07/03 04:37:06;;;;;;;;;;;10.30;99.90;;;;;;5114209;28;20398;-55
2022/07/03 04:39:33;;;;;;;;;;;10.40;99.90;;;;;;5114141;28;20385;-56
2022/07/03 04:42:00;;;;;;;;;;;10.50;99.90;;;;;;5114166;28;20001;-55
2022/07/03 04:44:28;;;;;;;;;;;10.60;99.90;;;;;;5112414;28;19919;-55
2022/07/03 04:46:55;;;;;;;;;;;10.70;99.90;;;;;;5112596;28;20390;-55
2022/07/03 04:49:23;;;;;;;;;;;10.70;99.90;;;;;;5091145;28;20408;-55
2022/07/03 04:51:52;;;;;;;;;;;10.80;99.90;;;;;;5090280;28;19927;-54
2022/07/03 04:54:19;;;;;;;;;;;10.90;99.90;;;;;;5106616;28;19926;-54
2022/07/03 04:56:47;;;;;;;;;;;10.90;99.90;;;;;;5109265;28;19923;-54
2022/07/03 04:59:14;;;;;;;;;;;11.00;99.90;;;;;;5091545;28;19920;-54
2022/07/03 05:01:42;;;;;;;;;;;11.00;99.90;;;;;;5091056;28;19927;-54
2022/07/03 05:04:09;;;;;;;;;;;11.00;99.90;;;;;;5100746;28;19920;-54
2022/07/03 05:06:36;;;;;;;;;;;11.10;99.90;;;;;;5105967;28;19921;-55
2022/07/03 05:09:04;;;;;;;;;;;11.10;99.90;;;;;;5104269;28;19950;-55
2022/07/03 05:11:31;;;;;;;;;;;11.20;99.90;;;;;;5108579;28;19930;-55
2022/07/03 05:13:59;;;;;;;;;;;11.20;99.90;;;;;;5103751;28;19920;-57
2022/07/03 05:16:26;;;;;;;;;;;11.30;99.90;;;;;;5108297;28;19923;-57
2022/07/03 05:18:54;;;;;;;;;;;11.30;99.90;;;;;;5089253;28;20428;-55
2022/07/03 05:21:21;;;;;;;;;;;11.40;99.90;;;;;;5088066;28;19923;-58
2022/07/03 05:23:49;;;;;;;;;;;11.50;99.90;;;;;;5100042;28;19930;-57
2022/07/03 05:26:16;;;;;;;;;;;11.50;99.90;;;;;;5092259;28;19923;-57
2022/07/03 05:28:44;;;;;;;;;;;11.60;99.90;;;;;;5095310;28;19924;-57
2022/07/03 05:31:11;;;;;;;;;;;11.60;99.90;;;;;;5089886;28;20382;-57
2022/07/03 05:33:39;;;;;;;;;;;11.60;99.90;;;;;;5099371;28;19924;-57
2022/07/03 05:36:06;;;;;;;;;;;11.70;99.90;;;;;;5108732;28;19923;-57
2022/07/03 05:41:20;;;;;;;;;;;11.90;99.90;;;;;;5087345;28;20386;-57
2022/07/03 05:43:47;;;;;;;;;;;11.90;99.90;;;;;;5098516;28;19927;-58
2022/07/03 05:46:15;;;;;;;;;;;11.90;99.90;;;;;;5109727;28;20280;-58
2022/07/03 05:48:43;;;;;;;;;;;12.00;99.90;;;;;;5092528;28;19924;-56
2022/07/03 05:51:10;;;;;;;;;;;12.00;99.90;;;;;;5087628;28;19920;-58
2022/07/03 05:53:37;;;;;;;;;;;12.00;99.90;;;;;;5084373;28;19926;-58
2022/07/03 05:56:05;;;;;;;;;;;12.00;99.90;;;;;;5086553;28;19920;-58
2022/07/03 05:58:32;;;;;;;;;;;12.00;99.90;;;;;;5089038;28;19920;-58
2022/07/03 06:01:00;;;;;;;;;;;12.00;99.90;;;;;;5070062;28;19924;-58
2022/07/03 06:03:28;;;;;;;;;;;12.10;99.90;;;;;;5092545;28;19924;-58
2022/07/03 06:05:55;;;;;;;;;;;12.10;99.90;;;;;;5105341;28;19920;-57
2022/07/03 06:08:23;;;;;;;;;;;12.20;99.90;;;;;;5094507;28;19920;-55
2022/07/03 06:10:50;;;;;;;;;;;12.20;99.90;;;;;;5085985;28;19928;-58
2022/07/03 06:13:18;;;;;;;;;;;12.20;99.90;;;;;;5093658;28;19946;-58
2022/07/03 06:15:45;;;;;;;;;;;12.30;99.90;;;;;;5109299;28;19927;-58
2022/07/03 06:18:12;;;;;;;;;;;12.40;99.90;;;;;;5098891;28;19924;-56
2022/07/03 06:20:40;;;;;;;;;;;12.50;99.90;;;;;;5087212;28;20386;-56
2022/07/03 06:23:07;;;;;;;;;;;12.50;99.90;;;;;;5091641;28;19923;-55
2022/07/03 06:25:55;;;;;;;;;;;12.60;99.90;;;;;;5108711;28;19920;-56
2022/07/03 06:28:22;;;;;;;;;;;12.70;99.90;;;;;;5097616;28;19920;-55
2022/07/03 06:30:49;;;;;;;;;;;12.80;99.90;;;;;;5088198;28;19920;-56
2022/07/03 06:33:17;;;;;;;;;;;12.80;99.90;;;;;;5089152;28;19919;-55
2022/07/03 06:35:45;;;;;;;;;;;12.90;99.90;;;;;;5104897;28;19920;-59
2022/07/03 06:38:12;;;;;;;;;;;12.90;99.90;;;;;;5098911;28;19931;-58
2022/07/03 06:40:39;;;;;;;;;;;12.90;99.90;;;;;;5087325;28;19920;-57
2022/07/03 06:43:07;;;;;;;;;;;13.00;99.90;;;;;;5089897;28;19928;-58
2022/07/03 06:45:34;;;;;;;;;;;13.00;99.90;;;;;;5108964;28;19938;-59
2022/07/03 06:48:02;;;;;;;;;;;13.10;99.90;;;;;;5096987;28;19927;-58
2022/07/03 06:50:29;;;;;;;;;;;13.20;99.90;;;;;;5098573;28;19919;-58
2022/07/03 06:52:56;;;;;;;;;;;13.30;99.90;;;;;;5098239;28;19920;-58
2022/07/03 06:55:24;;;;;;;;;;;13.40;99.90;;;;;;5088698;28;19927;-58
2022/07/03 06:57:52;;;;;;;;;;;13.50;99.90;;;;;;5087199;28;19931;-59
2022/07/03 07:00:19;;;;;;;;;;;13.60;99.90;;;;;;5092972;28;19920;-58
2022/07/03 07:02:46;;;;;;;;;;;13.60;99.90;;;;;;5097083;28;20248;-58
2022/07/03 07:05:14;;;;;;;;;;;13.70;99.90;;;;;;5084364;28;19924;-59
2022/07/03 07:07:41;;;;;;;;;;;13.80;99.90;;;;;;5087296;28;19920;-57
2022/07/03 07:10:09;;;;;;;;;;;13.80;99.90;;;;;;5094016;28;19923;-59
2022/07/03 07:12:36;;;;;;;;;;;13.90;99.90;;;;;;5100841;28;19924;-58
2022/07/03 07:15:05;;;;;;;;;;;14.00;99.90;;;;;;5088496;28;19920;-58
2022/07/03 07:17:33;;;;;;;;;;;14.10;99.90;;;;;;5088331;28;19919;-58
2022/07/03 07:20:00;;;;;;;;;;;14.20;99.90;;;;;;5088541;28;19920;-59
2022/07/03 07:22:28;;;;;;;;;;;14.30;99.90;;;;;;5102197;28;19946;-58
2022/07/03 07:24:55;;;;;;;;;;;14.30;99.90;;;;;;5088186;28;19927;-57
2022/07/03 07:27:23;;;;;;;;;;;14.40;99.90;;;;;;5088519;28;19927;-58
2022/07/03 07:29:50;;;;;;;;;;;14.40;99.90;;;;;;5106717;28;19926;-57
2022/07/03 07:32:17;;;;;;;;;;;14.40;99.90;;;;;;5108556;28;19920;-57
2022/07/03 07:34:45;;;;;;;;;;;14.50;99.90;;;;;;5090550;28;19924;-54
2022/07/03 07:37:13;;;;;;;;;;;14.60;99.90;;;;;;5088649;28;19919;-56
2022/07/03 07:39:40;;;;;;;;;;;14.60;99.90;;;;;;5104235;28;19931;-56
2022/07/03 07:42:08;;;;;;;;;;;14.70;99.90;;;;;;5106632;28;19947;-56
2022/07/03 07:44:36;;;;;;;;;;;14.70;99.90;;;;;;5089612;28;19920;-56
2022/07/03 07:47:03;;;;;;;;;;;14.90;99.90;;;;;;5089283;28;19923;-55
2022/07/03 07:49:31;;;;;;;;;;;14.90;99.90;;;;;;5091915;28;20526;-56
2022/07/03 07:51:58;;;;;;;;;;;15.10;99.90;;;;;;5106009;28;19923;-56
2022/07/03 07:54:26;;;;;;;;;;;15.20;99.90;;;;;;5091447;28;19924;-56
2022/07/03 07:56:53;;;;;;;;;;;15.30;99.90;;;;;;5091596;28;19931;-56
2022/07/03 07:59:20;;;;;;;;;;;15.40;99.90;;;;;;5103306;28;20390;-56
2022/07/03 08:07:20;;;;;;;;;;;15.60;99.90;;;;;;5109697;28;19920;-56
2022/07/03 08:09:48;;;;;;;;;;;15.70;99.90;;;;;;5106884;28;19920;-59
2022/07/03 08:12:15;;;;;;;;;;;15.80;99.90;;;;;;5107437;28;20402;-58
2022/07/03 08:14:42;;;;;;;;;;;15.80;99.90;;;;;;5101714;28;19923;-59
2022/07/03 08:17:10;;;;;;;;;;;15.80;99.90;;;;;;5110772;28;20395;-56
2022/07/03 08:19:38;;;;;;;;;;;15.90;99.90;;;;;;5105029;28;19927;-58
2022/07/03 08:22:05;;;;;;;;;;;15.90;99.90;;;;;;5092108;28;19924;-58
2022/07/03 08:24:32;;;;;;;;;;;16.00;99.90;;;;;;5090824;28;20287;-59
2022/07/03 08:27:00;;;;;;;;;;;16.00;99.90;;;;;;5102925;28;20295;-58
2022/07/03 08:29:27;;;;;;;;;;;16.10;99.90;;;;;;5091380;28;19920;-59
2022/07/03 08:32:03;;;;;;;;;;;16.20;99.90;;;;;;5105756;28;19920;-58
2022/07/03 08:34:30;;;;;;;;;;;16.20;99.90;;;;;;5090580;28;19940;-58
2022/07/03 08:36:58;;;;;;;;;;;16.20;99.90;;;;;;5091694;28;19928;-59
2022/07/03 08:39:25;;;;;;;;;;;16.20;99.90;;;;;;5095969;27;19920;-59
2022/07/03 08:41:53;;;;;;;;;;;16.20;99.90;;;;;;5090847;28;19974;-56
2022/07/03 08:44:20;;;;;;;;;;;16.20;99.90;;;;;;5091788;28;19924;-58
2022/07/03 08:46:48;;;;;;;;;;;16.20;99.90;;;;;;5090001;28;19924;-58
2022/07/03 08:49:16;;;;;;;;;;;16.20;99.90;;;;;;5090799;28;19924;-57
2022/07/03 08:51:45;;;;;;;;;;;16.30;99.90;;;;;;5090223;28;19924;-57
2022/07/03 08:54:13;;;;;;;;;;;16.50;99.90;;;;;;5091075;28;20367;-60
2022/07/03 08:56:44;;;;;;;;;;;16.50;99.90;;;;;;5100214;28;19926;-58
2022/07/03 08:59:12;;;;;;;;;;;16.60;99.90;;;;;;5098465;28;19920;-57
2022/07/03 09:01:44;;;;;;;;;;;16.70;99.90;;;;;;5109397;28;19923;-59
2022/07/03 09:04:13;;;;;;;;;;;16.80;99.90;;;;;;5090780;28;19920;-57
2022/07/03 09:06:41;;;;;;;;;;;16.80;99.90;;;;;;5092269;27;19924;-58
2022/07/03 09:09:08;;;;;;;;;;;16.90;99.90;;;;;;5094764;28;19936;-58
2022/07/03 09:11:37;;;;;;;;;;;16.80;99.90;;;;;;5095223;28;20489;-57
2022/07/03 09:14:06;;;;;;;;;;;16.70;99.90;;;;;;5094192;28;19920;-58
2022/07/03 09:16:35;;;;;;;;;;;16.60;99.90;;;;;;5109865;28;19930;-58
2022/07/03 09:19:04;;;;;;;;;;;16.50;99.90;;;;;;5089729;28;19920;-58
2022/07/03 09:21:36;;;;;;;;;;;16.50;99.90;;;;;;5086896;28;19920;-56
2022/07/03 09:24:05;;;;;;;;;;;16.50;99.90;;;;;;5103590;28;19997;-55
2022/07/03 09:26:33;;;;;;;;;;;16.60;99.90;;;;;;5104079;28;19920;-56
2022/07/03 09:29:00;;;;;;;;;;;16.60;99.90;;;;;;5100019;28;20453;-58
2022/07/03 09:31:29;;;;;;;;;;;16.60;99.90;;;;;;5103951;28;19946;-57
2022/07/03 09:34:01;;;;;;;;;;;16.60;99.90;;;;;;5103002;28;19920;-57
2022/07/03 09:36:43;;;;;;;;;;;16.70;99.90;;;;;;5101387;28;19942;-59
2022/07/03 09:39:16;;;;;;;;;;;16.70;99.90;;;;;;5100302;28;19919;-57
2022/07/03 09:42:03;;;;;;;;;;;17.00;99.90;;;;;;5103765;28;19919;-59
2022/07/03 09:44:33;;;;;;;;;;;17.20;99.90;;;;;;5085921;28;19923;-60
2022/07/03 09:47:10;;;;;;;;;;;17.50;99.90;;;;;;5093836;28;19924;-59
2022/07/03 09:49:44;;;;;;;;;;;17.60;99.90;;;;;;5103028;28;20394;-59
2022/07/03 09:52:25;;;;;;;;;;;17.60;99.90;;;;;;5099245;28;19920;-59
2022/07/03 09:54:53;;;;;;;;;;;18.00;99.90;;;;;;5094512;28;19931;-59
2022/07/03 09:57:22;;;;;;;;;;;17.70;99.90;;;;;;5102780;28;20410;-57
2022/07/03 09:59:50;;;;;;;;;;;17.60;99.90;;;;;;5104758;28;19924;-56
2022/07/03 10:02:21;;;;;;;;;;;17.60;99.90;;;;;;5100792;28;19926;-56
2022/07/03 10:04:48;;;;;;;;;;;17.70;99.90;;;;;;5085165;28;19920;-56
2022/07/03 10:07:16;;;;;;;;;;;17.60;99.90;;;;;;5096466;28;19924;-57
2022/07/03 10:09:43;;;;;;;;;;;17.70;99.90;;;;;;5085996;28;20623;-57
2022/07/03 10:12:10;;;;;;;;;;;17.80;99.90;;;;;;5085633;28;19935;-56
2022/07/03 10:14:38;;;;;;;;;;;17.80;99.90;;;;;;5084347;28;19920;-56
2022/07/03 10:17:06;;;;;;;;;;;17.90;99.90;;;;;;5096920;28;19920;-57
2022/07/03 10:19:41;;;;;;;;;;;17.90;99.90;;;;;;5096979;28;19927;-58
2022/07/03 10:22:10;;;;;;;;;;;18.00;99.90;;;;;;5101119;28;19931;-59
2022/07/03 10:24:38;;;;;;;;;;;18.20;99.90;;;;;;5101210;28;19934;-59
2022/07/03 10:27:06;;;;;;;;;;;18.30;99.90;;;;;;5101106;28;20542;-60
2022/07/03 10:29:36;;;;;;;;;;;18.40;99.90;;;;;;5099881;28;19934;-57
2022/07/03 10:32:05;;;;;;;;;;;18.50;99.90;;;;;;5105146;28;20371;-60
2022/07/03 10:34:33;;;;;;;;;;;18.60;99.90;;;;;;5104260;28;19927;-59
2022/07/03 10:37:01;;;;;;;;;;;18.70;99.90;;;;;;5103049;28;19959;-59
2022/07/03 10:39:33;;;;;;;;;;;18.70;99.90;;;;;;5085196;28;19924;-60
2022/07/03 10:45:06;;;;;;;;;;;18.70;99.90;;;;;;5085020;28;19998;-56
2022/07/03 10:47:44;;;;;;;;;;;18.80;99.90;;;;;;5090071;28;20398;-58
2022/07/03 10:50:15;;;;;;;;;;;18.90;99.90;;;;;;5085183;28;19920;-58
2022/07/03 10:52:43;;;;;;;;;;;18.80;99.90;;;;;;5085334;28;19920;-58
2022/07/03 10:55:11;;;;;;;;;;;18.90;99.90;;;;;;5086149;28;19920;-58
2022/07/03 10:57:39;;;;;;;;;;;18.90;99.90;;;;;;5099312;28;20367;-58
2022/07/03 11:00:08;;;;;;;;;;;18.90;99.90;;;;;;5083943;28;19920;-58
2022/07/03 11:02:37;;;;;;;;;;;18.90;99.90;;;;;;5084872;28;19919;-58
2022/07/03 11:05:09;;;;;;;;;;;18.80;99.90;;;;;;5087847;28;19928;-58
2022/07/03 11:07:39;;;;;;;;;;;18.80;99.90;;;;;;5089356;28;19927;-58
2022/07/03 11:10:12;;;;;;;;;;;18.70;99.90;;;;;;5108888;28;20248;-58
2022/07/03 11:12:57;;;;;;;;;;;18.50;99.90;;;;;;5101752;28;19943;-58
2022/07/03 11:15:39;;;;;;;;;;;18.40;99.90;;;;;;5089725;28;19920;-57
2022/07/03 11:18:16;;;;;;;;;;;18.20;99.90;;;;;;5099574;28;19924;-56
2022/07/03 11:20:43;;;;;;;;;;;18.00;99.90;;;;;;5088364;28;20393;-58
2022/07/03 11:23:10;;;;;;;;;;;17.90;99.90;;;;;;5088939;28;19935;-57
2022/07/03 11:25:42;;;;;;;;;;;17.80;99.90;;;;;;5090499;28;19931;-59
2022/07/03 11:28:28;;;;;;;;;;;17.80;99.90;;;;;;5100537;28;20363;-59
2022/07/03 11:31:18;;;;;;;;;;;17.80;99.90;;;;;;5091901;28;20371;-58
2022/07/03 11:33:45;;;;;;;;;;;17.90;99.90;;;;;;5091478;28;19927;-58
2022/07/03 11:36:15;;;;;;;;;;;18.00;99.90;;;;;;5097557;28;19920;-58
2022/07/03 11:38:43;;;;;;;;;;;18.00;99.90;;;;;;5098622;28;19927;-60
2022/07/03 11:41:12;;;;;;;;;;;18.10;99.90;;;;;;5091689;28;19943;-59
2022/07/03 11:43:46;;;;;;;;;;;18.20;99.90;;;;;;5090417;28;19927;-59
2022/07/03 11:46:17;;;;;;;;;;;18.30;99.90;;;;;;5096843;28;19919;-59
2022/07/03 11:48:45;;;;;;;;;;;18.20;99.90;;;;;;5098818;28;19950;-60
2022/07/03 11:51:13;;;;;;;;;;;18.10;99.90;;;;;;5091749;28;19924;-59
2022/07/03 11:53:41;;;;;;;;;;;18.10;99.90;;;;;;5091883;28;19923;-59
2022/07/03 11:56:10;;;;;;;;;;;18.00;99.90;;;;;;5094722;28;20298;-58
2022/07/03 11:58:44;;;;;;;;;;;18.00;99.90;;;;;;5099810;28;19927;-56
2022/07/03 12:01:21;;;;;;;;;;;18.00;99.90;;;;;;5091423;28;19934;-58
2022/07/03 12:03:48;;;;;;;;;;;18.00;99.90;;;;;;5090023;28;20269;-58
2022/07/03 12:06:16;;;;;;;;;;;18.00;99.90;;;;;;5110868;27;20397;-58
2022/07/03 12:08:47;;;;;;;;;;;18.10;99.90;;;;;;5101012;28;19920;-58
2022/07/03 12:11:16;;;;;;;;;;;18.10;99.90;;;;;;5089442;28;20386;-59
2022/07/03 12:13:43;;;;;;;;;;;18.20;99.90;;;;;;5090760;28;19920;-59
2022/07/03 12:16:13;;;;;;;;;;;18.20;99.90;;;;;;5093116;28;20394;-58
2022/07/03 12:18:51;;;;;;;;;;;18.10;99.90;;;;;;5111149;28;19927;-59
2022/07/03 12:21:19;;;;;;;;;;;18.10;99.90;;;;;;5111443;28;19942;-56
2022/07/03 12:23:46;;;;;;;;;;;18.10;99.90;;;;;;5099770;28;19921;-56
2022/07/03 12:26:25;;;;;;;;;;;18.00;99.90;;;;;;5091836;28;19930;-56
2022/07/03 12:28:53;;;;;;;;;;;18.00;99.90;;;;;;5094774;28;19947;-56
2022/07/03 12:31:20;;;;;;;;;;;17.80;99.90;;;;;;5086461;28;19924;-55
2022/07/03 12:33:48;;;;;;;;;;;17.80;99.90;;;;;;5086321;28;19924;-56
2022/07/03 12:36:16;;;;;;;;;;;17.70;99.90;;;;;;5089522;28;19927;-56
2022/07/03 12:38:48;;;;;;;;;;;17.60;99.90;;;;;;5095247;28;19927;-57
2022/07/03 12:41:16;;;;;;;;;;;17.50;99.90;;;;;;5101898;28;19993;-56
2022/07/03 12:43:45;;;;;;;;;;;17.50;99.90;;;;;;5106751;28;19920;-56
2022/07/03 12:46:16;;;;;;;;;;;17.50;99.90;;;;;;5107481;28;19927;-56
2022/07/03 12:48:51;;;;;;;;;;;17.60;99.90;;;;;;5105635;28;19926;-59
2022/07/03 12:51:40;;;;;;;;;;;17.70;99.90;;;;;;5106528;28;19920;-58
2022/07/03 12:54:08;;;;;;;;;;;17.80;99.90;;;;;;5092838;28;20295;-56
2022/07/03 12:56:36;;;;;;;;;;;18.00;99.90;;;;;;5104729;28;19989;-58
2022/07/03 12:59:18;;;;;;;;;;;18.30;99.90;;;;;;5092058;28;20405;-56
2022/07/03 13:01:59;;;;;;;;;;;18.60;99.90;;;;;;5086865;28;19920;-56
2022/07/03 13:04:34;;;;;;;;;;;19.10;99.90;;;;;;5102808;28;19920;-58
2022/07/03 13:07:03;;;;;;;;;;;19.60;99.90;;;;;;5105726;28;20280;-58
2022/07/03 13:09:30;;;;;;;;;;;20.20;99.90;;;;;;5091700;28;19920;-58
2022/07/03 13:11:58;;;;;;;;;;;20.70;99.90;;;;;;5086651;28;19923;-58
2022/07/03 13:14:25;;;;;;;;;;;21.00;99.10;;;;;;5117542;27;19924;-57
2022/07/03 13:16:54;;;;;;;;;;;20.90;98.00;;;;;;5107154;28;20199;-59
2022/07/03 13:19:25;;;;;;;;;;;20.60;97.20;;;;;;5089118;28;19935;-59
2022/07/03 13:21:54;;;;;;;;;;;20.10;98.10;;;;;;5085209;28;19920;-58
2022/07/03 13:24:22;;;;;;;;;;;19.50;99.40;;;;;;5099158;28;19931;-59
2022/07/03 13:26:50;;;;;;;;;;;19.10;99.90;;;;;;5104119;28;20283;-58
2022/07/03 13:29:21;;;;;;;;;;;18.70;99.90;;;;;;5088036;28;19946;-57
2022/07/03 13:31:49;;;;;;;;;;;18.40;99.90;;;;;;5101870;28;19927;-56
2022/07/03 13:34:18;;;;;;;;;;;18.30;99.90;;;;;;5088183;28;19924;-58
2022/07/03 13:36:45;;;;;;;;;;;18.20;99.90;;;;;;5086224;28;19920;-58
2022/07/03 13:39:13;;;;;;;;;;;18.20;99.90;;;;;;5086894;28;20295;-58
2022/07/03 13:41:40;;;;;;;;;;;18.30;99.90;;;;;;5105511;28;19924;-57
2022/07/03 13:44:08;;;;;;;;;;;18.40;99.90;;;;;;5106149;28;20302;-56
2022/07/03 13:46:35;;;;;;;;;;;18.50;99.90;;;;;;5106426;28;19927;-57
2022/07/03 13:49:03;;;;;;;;;;;18.60;99.90;;;;;;5106115;28;20314;-58
2022/07/03 13:51:30;;;;;;;;;;;18.80;99.90;;;;;;5105250;28;19927;-57
2022/07/03 13:53:58;;;;;;;;;;;18.90;99.90;;;;;;5099829;28;20294;-58
2022/07/03 13:56:25;;;;;;;;;;;18.80;99.90;;;;;;5085638;28;19927;-59
2022/07/03 13:58:53;;;;;;;;;;;18.70;99.90;;;;;;5085711;28;19927;-59
2022/07/03 14:01:21;;;;;;;;;;;18.60;99.90;;;;;;5101500;28;19920;-59
2022/07/03 14:03:49;;;;;;;;;;;18.50;99.90;;;;;;5091664;28;20278;-58
2022/07/03 14:06:16;;;;;;;;;;;18.50;99.90;;;;;;5085543;28;19999;-59
2022/07/03 14:08:44;;;;;;;;;;;18.50;99.90;;;;;;5085814;28;19924;-58
2022/07/03 14:11:11;;;;;;;;;;;18.50;99.90;;;;;;5099873;28;19930;-58
2022/07/03 14:13:38;;;;;;;;;;;18.60;99.90;;;;;;5091652;28;20363;-58
2022/07/03 14:16:06;;;;;;;;;;;18.70;99.90;;;;;;5085573;28;19924;-56
2022/07/03 14:18:33;;;;;;;;;;;18.80;99.90;;;;;;5085391;28;19920;-59
2022/07/03 14:21:01;;;;;;;;;;;18.90;99.90;;;;;;5105682;28;19931;-58
2022/07/03 14:23:29;;;;;;;;;;;19.10;99.90;;;;;;5094150;28;19935;-58
2022/07/03 14:25:57;;;;;;;;;;;19.30;99.90;;;;;;5103953;28;19947;-58
2022/07/03 14:33:46;;;;;;;;;;;20.00;99.30;;;;;;5090730;28;19927;-58
2022/07/03 14:36:15;;;;;;;;;;;20.10;98.60;;;;;;5085486;28;19920;-59
2022/07/03 14:39:03;;;;;;;;;;;20.20;97.80;;;;;;5090113;28;19931;-59
2022/07/03 14:41:30;;;;;;;;;;;20.20;97.80;;;;;;5089451;28;19924;-59
2022/07/03 14:43:57;;;;;;;;;;;20.40;98.40;;;;;;5087973;28;19934;-59
2022/07/03 14:46:25;;;;;;;;;;;20.60;97.50;;;;;;5097638;28;19927;-59
2022/07/03 14:48:53;;;;;;;;;;;20.70;96.70;;;;;;5095862;28;19931;-58